createdAt,value
2022-12-06T00:09:00.199Z,43.60
2022-12-06T00:19:05.291Z,45.03
2022-12-06T00:29:08.107Z,41.87
2022-12-06T00:39:15.466Z,44.07
2022-12-06T00:49:20.731Z,50.60
2022-12-06T00:59:25.283Z,58.20
2022-12-06T01:09:31.227Z,52.60
2022-12-06T01:19:36.083Z,51.83
2022-12-06T01:29:42.927Z,53.67
2022-12-06T01:39:47.425Z,53.50
2022-12-06T01:50:15.516Z,43.83
2022-12-06T02:00:21.684Z,60.40
2022-12-06T02:10:23.849Z,49.57
2022-12-06T02:20:37.901Z,59.60
2022-12-06T02:31:00.409Z,56.47
2022-12-06T02:41:08.820Z,46.97
2022-12-06T02:51:14.315Z,45.40
2022-12-06T03:01:25.195Z,44.17
2022-12-06T03:11:31.819Z,54.67
2022-12-06T03:21:43.793Z,49.17
2022-12-06T03:31:46.516Z,36.80
2022-12-06T03:41:55.255Z,60.20
2022-12-06T03:52:00.137Z,48.10
2022-12-06T04:02:02.252Z,45.67
2022-12-06T04:12:29.231Z,53.63
2022-12-06T04:22:50.030Z,53.47
2022-12-06T04:33:10.740Z,49.73
2022-12-06T04:43:31.305Z,46.50
2022-12-06T04:53:35.596Z,53.63
2022-12-06T05:03:44.409Z,54.23
2022-12-06T05:13:46.705Z,49.60
2022-12-06T05:23:55.336Z,47.17
2022-12-06T05:34:01.893Z,37.83
2022-12-06T05:44:06.336Z,54.10
2022-12-06T05:54:08.364Z,49.23
2022-12-06T06:04:13.672Z,52.57
2022-12-06T06:14:15.785Z,44.13
2022-12-06T06:24:20.436Z,41.90
2022-12-06T06:34:22.533Z,37.87
2022-12-06T06:44:26.074Z,55.57
2022-12-06T06:54:32.874Z,43.10
2022-12-06T07:04:34.963Z,50.73
2022-12-06T07:14:37.080Z,50.80
2022-12-06T07:24:46.649Z,45.60
2022-12-06T07:34:53.047Z,41.13
2022-12-06T07:45:04.917Z,46.60
2022-12-06T07:55:08.798Z,49.43
2022-12-06T08:05:11.487Z,47.80
2022-12-06T08:15:17.199Z,59.10
2022-12-06T08:25:24.113Z,63.10
2022-12-06T08:35:26.321Z,62.07
2022-12-06T08:45:28.408Z,67.53
2022-12-06T08:55:30.473Z,60.70
2022-12-06T09:05:35.617Z,70.37
2022-12-06T09:15:41.102Z,67.13
2022-12-06T09:25:45.771Z,59.17
2022-12-06T09:35:50.655Z,62.50
2022-12-06T09:46:14.584Z,73.27
2022-12-06T09:56:43.334Z,61.77
2022-12-06T10:07:14.039Z,65.77
2022-12-06T10:17:29.676Z,67.13
2022-12-06T10:27:40.876Z,72.53
2022-12-06T10:38:27.907Z,64.77
2022-12-06T10:48:38.608Z,58.27
2022-12-06T10:58:45.869Z,66.27
2022-12-06T11:08:53.351Z,78.60
2022-12-06T11:18:57.729Z,87.63
2022-12-06T11:29:05.923Z,83.63
2022-12-06T11:39:15.160Z,81.23
2022-12-06T11:49:38.494Z,74.47
2022-12-06T12:00:09.123Z,80.17
2022-12-06T12:10:41.372Z,78.90
2022-12-06T12:20:48.282Z,85.63
2022-12-06T12:31:00.463Z,102.27
2022-12-06T12:41:17.344Z,88.67
2022-12-06T12:51:25.618Z,91.57
2022-12-06T13:01:44.216Z,99.47
2022-12-06T13:11:53.270Z,108.33
2022-12-06T13:21:57.709Z,111.40
2022-12-06T13:32:43.798Z,119.33
2022-12-06T13:42:46.164Z,95.50
2022-12-06T13:52:48.147Z,78.07
2022-12-06T14:02:52.823Z,102.13
2022-12-06T14:13:04.192Z,101.90
2022-12-06T14:23:22.679Z,70.63
2022-12-06T14:33:29.435Z,95.90
2022-12-06T14:43:33.000Z,91.77
2022-12-06T14:53:37.585Z,69.57
2022-12-06T15:03:48.031Z,72.53
2022-12-06T15:14:11.274Z,73.23
2022-12-06T15:24:19.769Z,65.20
2022-12-06T15:34:30.006Z,74.67
2022-12-06T15:44:32.311Z,46.97
2022-12-06T15:54:36.602Z,58.53
2022-12-06T16:04:41.726Z,65.53
2022-12-06T16:14:44.048Z,64.77
2022-12-06T16:24:50.851Z,43.80
2022-12-06T16:34:55.804Z,54.33
2022-12-06T16:44:58.239Z,57.80
2022-12-06T16:55:00.856Z,36.27
2022-12-06T17:05:07.060Z,48.60
2022-12-06T17:15:15.108Z,44.17
2022-12-06T17:25:17.413Z,41.03
2022-12-06T17:35:32.263Z,42.97
2022-12-06T17:45:36.812Z,44.87
2022-12-06T17:55:42.009Z,47.50
2022-12-06T18:05:45.112Z,40.90
2022-12-06T18:15:47.222Z,43.73
2022-12-06T18:25:49.361Z,50.63
2022-12-06T18:35:55.222Z,46.83
2022-12-06T18:46:06.737Z,42.40
2022-12-06T18:56:17.218Z,44.47
2022-12-06T19:06:24.932Z,45.03
2022-12-06T19:16:28.975Z,48.33
2022-12-06T19:26:31.072Z,42.77
2022-12-06T19:36:38.440Z,40.60
2022-12-06T19:46:43.116Z,40.33
2022-12-06T19:56:45.988Z,48.03
2022-12-06T20:06:48.279Z,49.87
2022-12-06T20:16:55.135Z,47.97
2022-12-06T20:26:57.772Z,47.77
2022-12-06T20:37:07.636Z,46.60
2022-12-06T20:47:09.740Z,51.73
2022-12-06T20:57:11.899Z,51.40
2022-12-06T21:07:14.162Z,45.63
2022-12-06T21:17:18.756Z,41.00
2022-12-06T21:27:20.904Z,30.07
2022-12-06T21:37:25.361Z,29.93
2022-12-06T21:47:29.955Z,24.60
2022-12-06T21:57:35.715Z,23.23
2022-12-06T22:07:37.797Z,25.67
2022-12-06T22:17:40.549Z,30.90
2022-12-06T22:27:42.601Z,30.77
2022-12-06T22:37:44.708Z,26.37
2022-12-06T22:47:46.924Z,28.93
2022-12-06T22:57:48.973Z,29.13
2022-12-06T23:07:53.424Z,26.77
2022-12-06T23:17:57.816Z,21.27
2022-12-06T23:28:02.903Z,22.73
2022-12-06T23:38:04.928Z,23.33
2022-12-06T23:48:09.128Z,25.93
2022-12-06T23:58:11.210Z,31.40
